createdAt,value
2023-04-08T00:01:16.170Z,91.27
2023-04-08T00:03:52.984Z,91.09
2023-04-08T00:06:27.121Z,91.33
2023-04-08T00:09:04.430Z,91.48
2023-04-08T00:11:38.728Z,91.56
2023-04-08T00:14:11.777Z,91.58
2023-04-08T00:17:15.102Z,91.45
2023-04-08T00:19:52.643Z,91.59
2023-04-08T00:22:34.292Z,91.50
2023-04-08T00:25:10.088Z,91.34
2023-04-08T00:27:44.882Z,91.59
2023-04-08T00:30:40.043Z,91.43
2023-04-08T00:33:11.925Z,91.56
2023-04-08T00:36:07.682Z,91.67
2023-04-08T00:38:42.937Z,91.61
2023-04-08T00:41:12.910Z,91.31
2023-04-08T00:43:58.586Z,91.17
2023-04-08T00:46:45.239Z,90.84
2023-04-08T00:49:34.724Z,90.97
2023-04-08T00:52:19.438Z,90.85
2023-04-08T00:55:27.497Z,90.92
2023-04-08T00:58:50.904Z,90.83
2023-04-08T01:01:36.985Z,90.69
2023-04-08T01:04:39.977Z,90.30
2023-04-08T01:07:42.938Z,90.11
2023-04-08T01:10:35.550Z,89.87
2023-04-08T01:13:12.811Z,89.88
2023-04-08T01:15:44.331Z,90.17
2023-04-08T01:18:38.180Z,90.30
2023-04-08T01:21:38.857Z,90.62
2023-04-08T01:24:19.498Z,90.38
2023-04-08T01:26:59.902Z,90.40
2023-04-08T01:29:41.277Z,90.31
2023-04-08T01:32:16.926Z,90.43
2023-04-08T01:34:47.967Z,90.43
2023-04-08T01:37:39.694Z,90.57
2023-04-08T01:40:11.606Z,90.82
2023-04-08T01:42:46.053Z,90.95
2023-04-08T01:45:29.710Z,91.23
2023-04-08T01:48:02.117Z,91.35
2023-04-08T01:50:44.194Z,91.74
2023-04-08T01:53:20.032Z,91.92
2023-04-08T01:55:55.818Z,92.01
2023-04-08T01:58:25.430Z,92.11
2023-04-08T02:01:19.452Z,92.30
2023-04-08T02:03:49.055Z,92.05
2023-04-08T02:06:22.043Z,92.35
2023-04-08T02:08:52.638Z,92.61
2023-04-08T02:11:32.094Z,92.44
2023-04-08T02:14:32.115Z,92.87
2023-04-08T02:17:24.377Z,92.97
2023-04-08T02:20:18.048Z,93.11
2023-04-08T02:23:15.730Z,93.24
2023-04-08T02:25:49.434Z,93.34
2023-04-08T02:28:24.987Z,93.56
2023-04-08T02:31:20.392Z,93.48
2023-04-08T02:33:55.364Z,93.40
2023-04-08T02:36:32.572Z,93.60
2023-04-08T02:39:28.169Z,93.63
2023-04-08T02:42:01.003Z,93.37
2023-04-08T02:44:35.862Z,93.44
2023-04-08T02:47:06.314Z,93.30
2023-04-08T02:49:43.919Z,93.33
2023-04-08T02:52:21.830Z,93.14
2023-04-08T02:54:56.425Z,93.43
2023-04-08T02:57:31.765Z,93.29
2023-04-08T03:00:12.608Z,93.37
2023-04-08T03:02:54.693Z,93.60
2023-04-08T03:05:32.545Z,93.53
2023-04-08T03:08:12.143Z,93.52
2023-04-08T03:10:47.512Z,93.67
2023-04-08T03:13:19.272Z,93.53
2023-04-08T03:15:53.395Z,93.72
2023-04-08T03:21:46.512Z,93.89
2023-04-08T03:27:59.115Z,93.69
2023-04-08T03:30:34.765Z,93.82
2023-04-08T03:33:13.410Z,93.71
2023-04-08T03:35:50.977Z,93.71
2023-04-08T03:38:25.199Z,93.48
2023-04-08T03:40:58.873Z,93.19
2023-04-08T03:43:33.196Z,93.49
2023-04-08T03:46:02.664Z,93.71
2023-04-08T03:52:25.729Z,94.34
2023-04-08T03:55:04.000Z,93.40
2023-04-08T03:57:40.324Z,93.12
2023-04-08T04:00:43.765Z,92.99
2023-04-08T04:03:21.866Z,93.04
2023-04-08T04:06:29.393Z,93.19
2023-04-08T04:09:11.998Z,93.07
2023-04-08T04:11:57.896Z,92.84
2023-04-08T04:14:34.523Z,92.64
2023-04-08T04:17:12.798Z,92.76
2023-04-08T04:19:44.897Z,92.50
2023-04-08T04:34:06.003Z,91.88
2023-04-08T04:40:21.331Z,91.68
2023-04-08T04:50:43.864Z,90.73
2023-04-08T04:53:59.584Z,90.86
2023-04-08T05:01:01.542Z,90.70
2023-04-08T05:04:45.242Z,90.67
2023-04-08T05:07:45.264Z,90.38
2023-04-08T05:11:07.305Z,90.07
2023-04-08T05:14:16.780Z,89.44
2023-04-08T05:21:29.901Z,88.52
2023-04-08T05:24:13.024Z,88.95
2023-04-08T05:26:55.775Z,88.82
2023-04-08T05:29:33.885Z,88.43
2023-04-08T05:32:07.257Z,87.98
2023-04-08T05:34:59.059Z,87.86
2023-04-08T05:37:54.403Z,88.06
2023-04-08T05:40:50.216Z,87.65
2023-04-08T05:44:23.535Z,86.98
2023-04-08T05:47:08.865Z,86.60
2023-04-08T05:51:03.541Z,86.72
2023-04-08T05:53:41.123Z,86.74
2023-04-08T06:00:42.038Z,85.78
2023-04-08T06:03:25.410Z,85.59
2023-04-08T06:06:16.588Z,85.81
2023-04-08T06:09:05.172Z,85.56
2023-04-08T06:11:57.265Z,84.69
2023-04-08T06:14:39.598Z,84.43
2023-04-08T06:22:14.308Z,83.69
2023-04-08T06:25:00.626Z,83.77
2023-04-08T06:27:47.926Z,83.48
2023-04-08T06:31:28.255Z,82.83
2023-04-08T06:34:16.961Z,82.53
2023-04-08T06:37:07.367Z,82.92
2023-04-08T06:39:50.904Z,82.39
2023-04-08T06:44:00.880Z,82.57
2023-04-08T06:46:53.187Z,82.06
2023-04-08T06:49:44.417Z,82.55
2023-04-08T06:52:48.777Z,82.58
2023-04-08T06:56:03.028Z,81.44
2023-04-08T06:58:49.460Z,80.97
2023-04-08T07:02:28.523Z,80.51
2023-04-08T07:08:53.258Z,78.71
2023-04-08T07:12:06.989Z,78.19
2023-04-08T07:14:58.216Z,77.02
2023-04-08T07:18:09.162Z,76.71
2023-04-08T07:24:16.628Z,75.29
2023-04-08T07:30:10.608Z,75.73
2023-04-08T07:32:46.297Z,75.53
2023-04-08T07:35:42.738Z,75.32
2023-04-08T07:38:41.497Z,75.24
2023-04-08T07:41:25.600Z,74.28
2023-04-08T07:44:11.670Z,73.92
2023-04-08T07:47:22.142Z,73.26
2023-04-08T07:54:16.829Z,72.24
2023-04-08T07:57:16.154Z,71.69
2023-04-08T08:00:28.325Z,71.38
2023-04-08T08:07:55.555Z,71.13
2023-04-08T08:10:43.984Z,70.39
2023-04-08T08:18:11.136Z,68.53
2023-04-08T08:21:49.034Z,68.46
2023-04-08T08:24:32.397Z,67.70
2023-04-08T09:02:06.861Z,68.56
2023-04-08T09:05:19.933Z,67.42
2023-04-08T09:08:37.900Z,67.16
2023-04-08T09:15:54.772Z,66.06
2023-04-08T09:27:25.598Z,65.52
2023-04-08T09:35:18.438Z,66.11
2023-04-08T09:39:20.487Z,65.36
2023-04-08T10:10:17.267Z,63.31
2023-04-08T10:18:02.530Z,61.73
2023-04-08T10:29:40.370Z,60.12
2023-04-08T10:47:21.513Z,59.45
2023-04-08T10:51:05.961Z,60.00
2023-04-08T11:09:07.748Z,58.98
2023-04-08T11:12:54.751Z,58.39
2023-04-08T11:15:37.643Z,55.83
2023-04-08T11:18:48.962Z,55.21
2023-04-08T11:21:58.091Z,55.82
2023-04-08T11:24:41.724Z,56.51
2023-04-08T11:28:15.321Z,56.17
2023-04-08T11:31:17.470Z,56.44
2023-04-08T11:34:47.788Z,56.14
2023-04-08T11:37:48.155Z,56.34
2023-04-08T11:40:43.008Z,56.43
2023-04-08T12:03:29.321Z,51.33
2023-04-08T12:07:12.273Z,50.63
2023-04-08T12:10:01.316Z,51.33
2023-04-08T12:13:27.954Z,51.79
2023-04-08T12:16:19.473Z,52.23
2023-04-08T12:20:20.188Z,52.29
2023-04-08T12:23:42.714Z,52.47
2023-04-08T12:27:00.150Z,52.45
2023-04-08T12:29:38.963Z,52.73
2023-04-08T12:33:47.649Z,52.94
2023-04-08T12:40:56.920Z,52.82
2023-04-08T12:44:47.105Z,52.91
2023-04-08T12:47:50.054Z,52.81
2023-04-08T12:50:43.823Z,52.87
2023-04-08T12:59:02.441Z,51.29
2023-04-08T13:03:14.397Z,51.17
2023-04-08T13:11:42.699Z,49.75
2023-04-08T13:14:26.935Z,50.11
2023-04-08T13:17:30.580Z,49.95
2023-04-08T13:21:34.658Z,49.71
2023-04-08T13:29:08.929Z,49.07
2023-04-08T13:41:28.738Z,48.39
2023-04-08T13:52:53.203Z,49.32
2023-04-08T14:00:04.408Z,48.60
2023-04-08T14:11:54.786Z,49.12
2023-04-08T14:20:16.566Z,50.55
2023-04-08T14:27:15.967Z,49.77
2023-04-08T14:30:23.495Z,49.07
2023-04-08T14:33:09.628Z,49.61
2023-04-08T14:48:47.340Z,53.02
2023-04-08T15:16:03.912Z,55.17
2023-04-08T15:27:43.897Z,56.07
2023-04-08T15:44:23.519Z,56.83
2023-04-08T15:47:08.854Z,57.20
2023-04-08T15:50:44.277Z,57.44
2023-04-08T16:10:47.307Z,59.32
2023-04-08T16:13:44.476Z,58.92
2023-04-08T16:16:35.935Z,58.89
2023-04-08T16:19:23.890Z,58.78
2023-04-08T16:30:55.190Z,60.57
2023-04-08T16:33:42.333Z,61.26
2023-04-08T16:37:28.080Z,61.52
2023-04-08T16:45:36.088Z,62.05
2023-04-08T16:49:05.009Z,62.38
2023-04-08T16:51:54.631Z,62.65
2023-04-08T16:54:55.035Z,63.10
2023-04-08T16:57:28.209Z,63.39
2023-04-08T17:00:29.710Z,63.64
2023-04-08T17:03:52.541Z,63.85
2023-04-08T17:06:23.936Z,64.01
2023-04-08T17:09:06.743Z,64.11
2023-04-08T17:21:16.412Z,64.52
2023-04-08T17:24:55.547Z,64.65
2023-04-08T17:28:27.549Z,64.69
2023-04-08T17:31:03.501Z,64.84
2023-04-08T17:33:40.187Z,64.95
2023-04-08T17:36:48.933Z,65.01
2023-04-08T17:40:25.162Z,65.05
2023-04-08T17:43:23.437Z,65.30
2023-04-08T17:47:21.698Z,65.33
2023-04-08T17:50:11.716Z,65.52
2023-04-08T17:53:10.570Z,65.53
2023-04-08T17:56:26.265Z,65.64
2023-04-08T18:00:13.607Z,65.65
2023-04-08T18:03:00.170Z,65.98
2023-04-08T18:06:33.410Z,66.33
2023-04-08T18:09:08.535Z,66.77
2023-04-08T18:12:08.890Z,67.11
2023-04-08T18:19:40.588Z,68.50
2023-04-08T18:31:51.421Z,70.74
2023-04-08T18:34:37.974Z,71.04
2023-04-08T18:38:38.310Z,71.21
2023-04-08T18:51:07.536Z,73.15
2023-04-08T18:58:49.073Z,73.83
2023-04-08T19:01:24.738Z,74.40
2023-04-08T19:04:33.142Z,74.80
2023-04-08T19:07:40.435Z,75.38
2023-04-08T19:10:50.044Z,76.28
2023-04-08T19:14:29.652Z,76.89
2023-04-08T19:21:46.466Z,78.70
2023-04-08T19:38:04.443Z,80.01
